sensor_id;sensor_type;location;lat;lon;timestamp;temperature;humidity
26947;DHT22;14501;52.282;10.560;2022-10-31T00:02:00;11.90;99.90
26947;DHT22;14501;52.282;10.560;2022-10-31T00:04:26;11.90;99.90
26947;DHT22;14501;52.282;10.560;2022-10-31T00:06:51;11.90;99.90
26947;DHT22;14501;52.282;10.560;2022-10-31T00:09:17;11.80;99.90
26947;DHT22;14501;52.282;10.560;2022-10-31T00:11:43;11.80;99.90
26947;DHT22;14501;52.282;10.560;2022-10-31T00:14:09;11.80;99.90
26947;DHT22;14501;52.282;10.560;2022-10-31T00:16:35;11.70;99.90
26947;DHT22;14501;52.282;10.560;2022-10-31T00:19:03;11.70;99.90
26947;DHT22;14501;52.282;10.560;2022-10-31T00:21:30;11.60;99.90
26947;DHT22;14501;52.282;10.560;2022-10-31T00:23:57;11.60;99.90
26947;DHT22;14501;52.282;10.560;2022-10-31T00:26:23;11.60;99.90
26947;DHT22;14501;52.282;10.560;2022-10-31T00:28:48;11.50;99.90
26947;DHT22;14501;52.282;10.560;2022-10-31T00:31:14;11.50;99.90
26947;DHT22;14501;52.282;10.560;2022-10-31T00:33:40;11.40;99.90
26947;DHT22;14501;52.282;10.560;2022-10-31T00:36:09;11.40;99.90
26947;DHT22;14501;52.282;10.560;2022-10-31T00:38:35;11.30;99.90
26947;DHT22;14501;52.282;10.560;2022-10-31T00:41:01;11.30;99.90
26947;DHT22;14501;52.282;10.560;2022-10-31T00:43:26;11.30;99.90
26947;DHT22;14501;52.282;10.560;2022-10-31T00:45:52;11.30;99.90
26947;DHT22;14501;52.282;10.560;2022-10-31T00:48:18;10.70;99.90
26947;DHT22;14501;52.282;10.560;2022-10-31T00:50:43;11.20;99.90
26947;DHT22;14501;52.282;10.560;2022-10-31T00:53:09;11.10;99.90
26947;DHT22;14501;52.282;10.560;2022-10-31T00:55:34;11.10;99.90
26947;DHT22;14501;52.282;10.560;2022-10-31T00:58:00;11.00;99.90
26947;DHT22;14501;52.282;10.560;2022-10-31T01:00:26;11.00;99.90
26947;DHT22;14501;52.282;10.560;2022-10-31T01:02:52;11.00;99.90
26947;DHT22;14501;52.282;10.560;2022-10-31T01:05:18;10.90;99.90
26947;DHT22;14501;52.282;10.560;2022-10-31T01:07:44;10.90;99.90
26947;DHT22;14501;52.282;10.560;2022-10-31T01:10:10;10.80;99.90
26947;DHT22;14501;52.282;10.560;2022-10-31T01:12:41;10.80;99.90
26947;DHT22;14501;52.282;10.560;2022-10-31T01:15:08;10.80;99.90
26947;DHT22;14501;52.282;10.560;2022-10-31T01:17:35;10.70;99.90
26947;DHT22;14501;52.282;10.560;2022-10-31T01:20:01;10.70;99.90
26947;DHT22;14501;52.282;10.560;2022-10-31T01:22:26;10.70;99.90
26947;DHT22;14501;52.282;10.560;2022-10-31T01:24:52;10.70;99.90
26947;DHT22;14501;52.282;10.560;2022-10-31T01:27:18;10.60;99.90
26947;DHT22;14501;52.282;10.560;2022-10-31T01:29:43;10.60;99.90
26947;DHT22;14501;52.282;10.560;2022-10-31T01:32:09;10.70;99.90
26947;DHT22;14501;52.282;10.560;2022-10-31T01:34:34;10.60;99.90
26947;DHT22;14501;52.282;10.560;2022-10-31T01:37:00;10.60;99.90
26947;DHT22;14501;52.282;10.560;2022-10-31T01:39:26;10.60;99.90
26947;DHT22;14501;52.282;10.560;2022-10-31T01:41:53;10.60;99.90
26947;DHT22;14501;52.282;10.560;2022-10-31T01:46:59;10.60;99.90
26947;DHT22;14501;52.282;10.560;2022-10-31T01:54:34;10.60;99.90
26947;DHT22;14501;52.282;10.560;2022-10-31T01:57:02;10.60;99.90
26947;DHT22;14501;52.282;10.560;2022-10-31T01:59:34;10.60;99.90
26947;DHT22;14501;52.282;10.560;2022-10-31T02:02:01;10.60;99.90
26947;DHT22;14501;52.282;10.560;2022-10-31T02:04:27;10.20;99.90
26947;DHT22;14501;52.282;10.560;2022-10-31T02:07:07;10.60;99.90
26947;DHT22;14501;52.282;10.560;2022-10-31T02:09:36;10.60;99.90
26947;DHT22;14501;52.282;10.560;2022-10-31T02:12:03;10.60;99.90
26947;DHT22;14501;52.282;10.560;2022-10-31T02:14:30;10.70;99.90
26947;DHT22;14501;52.282;10.560;2022-10-31T02:16:56;10.60;99.90
26947;DHT22;14501;52.282;10.560;2022-10-31T02:20:00;10.60;99.90
26947;DHT22;14501;52.282;10.560;2022-10-31T02:27:51;10.70;99.90
26947;DHT22;14501;52.282;10.560;2022-10-31T02:30:23;10.70;99.90
26947;DHT22;14501;52.282;10.560;2022-10-31T02:35:38;10.80;99.90
26947;DHT22;14501;52.282;10.560;2022-10-31T02:38:38;10.90;99.90
26947;DHT22;14501;52.282;10.560;2022-10-31T02:43:39;11.00;99.90
26947;DHT22;14501;52.282;10.560;2022-10-31T02:48:52;11.10;99.90
26947;DHT22;14501;52.282;10.560;2022-10-31T02:51:18;11.30;99.90
26947;DHT22;14501;52.282;10.560;2022-10-31T02:53:45;11.40;99.90
26947;DHT22;14501;52.282;10.560;2022-10-31T02:56:16;11.80;99.90
26947;DHT22;14501;52.282;10.560;2022-10-31T02:58:54;11.70;99.90
26947;DHT22;14501;52.282;10.560;2022-10-31T03:07:16;12.20;99.90
26947;DHT22;14501;52.282;10.560;2022-10-31T03:09:48;12.30;99.90
26947;DHT22;14501;52.282;10.560;2022-10-31T03:12:40;12.50;99.90
26947;DHT22;14501;52.282;10.560;2022-10-31T03:15:27;12.60;99.90
26947;DHT22;14501;52.282;10.560;2022-10-31T03:20:29;12.90;99.90
26947;DHT22;14501;52.282;10.560;2022-10-31T03:22:57;13.00;99.90
26947;DHT22;14501;52.282;10.560;2022-10-31T03:25:24;13.20;99.90
26947;DHT22;14501;52.282;10.560;2022-10-31T03:27:51;13.30;99.90
26947;DHT22;14501;52.282;10.560;2022-10-31T03:30:17;13.30;99.90
26947;DHT22;14501;52.282;10.560;2022-10-31T03:32:47;13.40;99.90
26947;DHT22;14501;52.282;10.560;2022-10-31T03:35:16;13.40;99.90
26947;DHT22;14501;52.282;10.560;2022-10-31T03:37:43;13.40;99.90
26947;DHT22;14501;52.282;10.560;2022-10-31T03:40:10;13.30;99.90
26947;DHT22;14501;52.282;10.560;2022-10-31T03:42:43;13.30;99.90
26947;DHT22;14501;52.282;10.560;2022-10-31T03:45:15;13.30;99.90
26947;DHT22;14501;52.282;10.560;2022-10-31T03:47:43;13.10;99.90
26947;DHT22;14501;52.282;10.560;2022-10-31T03:50:10;13.10;99.90
26947;DHT22;14501;52.282;10.560;2022-10-31T03:52:43;13.00;99.90
26947;DHT22;14501;52.282;10.560;2022-10-31T04:00:30;12.60;99.90
26947;DHT22;14501;52.282;10.560;2022-10-31T04:03:07;12.60;99.90
26947;DHT22;14501;52.282;10.560;2022-10-31T04:05:35;12.60;99.90
26947;DHT22;14501;52.282;10.560;2022-10-31T04:08:05;12.50;99.90
26947;DHT22;14501;52.282;10.560;2022-10-31T04:10:34;12.50;99.90
26947;DHT22;14501;52.282;10.560;2022-10-31T04:13:10;12.50;99.90
26947;DHT22;14501;52.282;10.560;2022-10-31T04:15:38;12.50;99.90
26947;DHT22;14501;52.282;10.560;2022-10-31T04:18:05;12.50;99.90
26947;DHT22;14501;52.282;10.560;2022-10-31T04:20:33;12.50;99.90
26947;DHT22;14501;52.282;10.560;2022-10-31T04:22:59;12.60;99.90
26947;DHT22;14501;52.282;10.560;2022-10-31T04:25:25;12.70;99.90
26947;DHT22;14501;52.282;10.560;2022-10-31T04:27:51;12.60;99.90
26947;DHT22;14501;52.282;10.560;2022-10-31T04:30:17;12.70;99.90
26947;DHT22;14501;52.282;10.560;2022-10-31T04:32:42;12.70;99.90
26947;DHT22;14501;52.282;10.560;2022-10-31T04:35:08;12.80;99.90
26947;DHT22;14501;52.282;10.560;2022-10-31T04:37:34;12.80;99.90
26947;DHT22;14501;52.282;10.560;2022-10-31T04:39:59;12.80;99.90
26947;DHT22;14501;52.282;10.560;2022-10-31T04:42:25;12.80;99.90
26947;DHT22;14501;52.282;10.560;2022-10-31T04:44:50;12.80;99.90
26947;DHT22;14501;52.282;10.560;2022-10-31T04:47:16;12.90;99.90
26947;DHT22;14501;52.282;10.560;2022-10-31T04:49:41;12.90;99.90
26947;DHT22;14501;52.282;10.560;2022-10-31T04:52:07;12.90;99.90
26947;DHT22;14501;52.282;10.560;2022-10-31T04:54:33;13.00;99.90
26947;DHT22;14501;52.282;10.560;2022-10-31T04:56:59;13.00;99.90
26947;DHT22;14501;52.282;10.560;2022-10-31T05:01:56;13.00;99.90
26947;DHT22;14501;52.282;10.560;2022-10-31T05:04:22;13.00;99.90
26947;DHT22;14501;52.282;10.560;2022-10-31T05:06:47;13.00;99.90
26947;DHT22;14501;52.282;10.560;2022-10-31T05:09:13;13.00;99.90
26947;DHT22;14501;52.282;10.560;2022-10-31T05:11:39;13.00;99.90
26947;DHT22;14501;52.282;10.560;2022-10-31T05:14:05;13.00;99.90
26947;DHT22;14501;52.282;10.560;2022-10-31T05:16:30;13.00;99.90
26947;DHT22;14501;52.282;10.560;2022-10-31T05:18:56;13.00;99.90
26947;DHT22;14501;52.282;10.560;2022-10-31T05:21:21;12.90;99.90
26947;DHT22;14501;52.282;10.560;2022-10-31T05:23:47;12.90;99.90
26947;DHT22;14501;52.282;10.560;2022-10-31T05:26:13;12.80;99.90
26947;DHT22;14501;52.282;10.560;2022-10-31T05:28:39;12.80;99.90
26947;DHT22;14501;52.282;10.560;2022-10-31T05:31:04;12.80;99.90
26947;DHT22;14501;52.282;10.560;2022-10-31T05:33:30;12.80;99.90
26947;DHT22;14501;52.282;10.560;2022-10-31T05:35:56;12.80;99.90
26947;DHT22;14501;52.282;10.560;2022-10-31T05:38:21;12.70;99.90
26947;DHT22;14501;52.282;10.560;2022-10-31T05:40:47;12.70;99.90
26947;DHT22;14501;52.282;10.560;2022-10-31T05:43:13;12.60;99.90
26947;DHT22;14501;52.282;10.560;2022-10-31T05:45:39;12.50;99.90
26947;DHT22;14501;52.282;10.560;2022-10-31T05:48:04;12.40;99.90
26947;DHT22;14501;52.282;10.560;2022-10-31T05:50:31;12.40;99.90
26947;DHT22;14501;52.282;10.560;2022-10-31T05:52:59;12.20;99.90
26947;DHT22;14501;52.282;10.560;2022-10-31T05:55:25;12.20;99.90
26947;DHT22;14501;52.282;10.560;2022-10-31T05:57:52;12.10;99.90
26947;DHT22;14501;52.282;10.560;2022-10-31T06:00:19;12.10;99.90
26947;DHT22;14501;52.282;10.560;2022-10-31T06:02:44;12.00;99.90
26947;DHT22;14501;52.282;10.560;2022-10-31T06:05:10;11.90;99.90
26947;DHT22;14501;52.282;10.560;2022-10-31T06:07:36;11.90;99.90
26947;DHT22;14501;52.282;10.560;2022-10-31T06:10:04;11.90;99.90
26947;DHT22;14501;52.282;10.560;2022-10-31T06:12:30;11.80;99.90
26947;DHT22;14501;52.282;10.560;2022-10-31T06:14:56;11.80;99.90
26947;DHT22;14501;52.282;10.560;2022-10-31T06:17:21;11.70;99.90
26947;DHT22;14501;52.282;10.560;2022-10-31T06:19:47;11.70;99.90
26947;DHT22;14501;52.282;10.560;2022-10-31T06:22:13;11.70;99.90
26947;DHT22;14501;52.282;10.560;2022-10-31T06:24:39;11.60;99.90
26947;DHT22;14501;52.282;10.560;2022-10-31T06:27:05;11.50;99.90
26947;DHT22;14501;52.282;10.560;2022-10-31T06:29:32;11.60;99.90
26947;DHT22;14501;52.282;10.560;2022-10-31T06:31:58;11.60;99.90
26947;DHT22;14501;52.282;10.560;2022-10-31T06:34:23;11.50;99.90
26947;DHT22;14501;52.282;10.560;2022-10-31T06:36:49;11.50;99.90
26947;DHT22;14501;52.282;10.560;2022-10-31T06:39:15;11.50;99.90
26947;DHT22;14501;52.282;10.560;2022-10-31T06:41:41;11.70;99.90
26947;DHT22;14501;52.282;10.560;2022-10-31T06:44:07;11.50;99.90
26947;DHT22;14501;52.282;10.560;2022-10-31T06:46:33;11.50;99.90
26947;DHT22;14501;52.282;10.560;2022-10-31T06:48:59;11.50;99.90
26947;DHT22;14501;52.282;10.560;2022-10-31T06:51:25;11.60;99.90
26947;DHT22;14501;52.282;10.560;2022-10-31T06:53:50;11.70;99.90
26947;DHT22;14501;52.282;10.560;2022-10-31T06:56:16;11.80;99.90
26947;DHT22;14501;52.282;10.560;2022-10-31T06:58:42;11.80;99.90
26947;DHT22;14501;52.282;10.560;2022-10-31T07:01:08;11.90;99.90
26947;DHT22;14501;52.282;10.560;2022-10-31T07:03:33;12.00;99.90
26947;DHT22;14501;52.282;10.560;2022-10-31T07:05:59;12.10;99.90
26947;DHT22;14501;52.282;10.560;2022-10-31T07:08:25;12.30;99.90
26947;DHT22;14501;52.282;10.560;2022-10-31T07:10:53;12.50;99.90
26947;DHT22;14501;52.282;10.560;2022-10-31T07:13:19;12.60;99.90
26947;DHT22;14501;52.282;10.560;2022-10-31T07:15:50;12.80;99.90
26947;DHT22;14501;52.282;10.560;2022-10-31T07:18:16;13.00;99.90
26947;DHT22;14501;52.282;10.560;2022-10-31T07:20:41;13.10;99.90
26947;DHT22;14501;52.282;10.560;2022-10-31T07:23:09;13.30;99.90
26947;DHT22;14501;52.282;10.560;2022-10-31T07:25:35;13.50;99.90
26947;DHT22;14501;52.282;10.560;2022-10-31T07:28:01;13.60;99.90
26947;DHT22;14501;52.282;10.560;2022-10-31T07:30:26;13.70;99.90
26947;DHT22;14501;52.282;10.560;2022-10-31T07:32:52;13.90;99.90
26947;DHT22;14501;52.282;10.560;2022-10-31T07:35:21;14.10;99.90
26947;DHT22;14501;52.282;10.560;2022-10-31T07:37:47;14.30;99.90
26947;DHT22;14501;52.282;10.560;2022-10-31T07:40:13;14.30;99.90
26947;DHT22;14501;52.282;10.560;2022-10-31T07:42:41;14.50;99.90
26947;DHT22;14501;52.282;10.560;2022-10-31T07:45:12;14.70;99.90
26947;DHT22;14501;52.282;10.560;2022-10-31T07:47:43;14.90;99.90
26947;DHT22;14501;52.282;10.560;2022-10-31T07:50:12;15.10;99.90
26947;DHT22;14501;52.282;10.560;2022-10-31T07:52:38;15.30;99.90
26947;DHT22;14501;52.282;10.560;2022-10-31T07:55:05;15.50;99.90
26947;DHT22;14501;52.282;10.560;2022-10-31T07:57:31;15.60;99.90
26947;DHT22;14501;52.282;10.560;2022-10-31T07:59:57;15.70;99.90
26947;DHT22;14501;52.282;10.560;2022-10-31T08:02:23;15.80;99.90
26947;DHT22;14501;52.282;10.560;2022-10-31T08:04:51;15.90;99.90
26947;DHT22;14501;52.282;10.560;2022-10-31T08:07:17;15.90;99.90
26947;DHT22;14501;52.282;10.560;2022-10-31T08:09:44;15.90;99.90
26947;DHT22;14501;52.282;10.560;2022-10-31T08:12:10;15.90;99.90
26947;DHT22;14501;52.282;10.560;2022-10-31T08:14:35;16.00;99.90
26947;DHT22;14501;52.282;10.560;2022-10-31T08:17:01;16.00;99.90
26947;DHT22;14501;52.282;10.560;2022-10-31T08:19:27;16.00;99.90
26947;DHT22;14501;52.282;10.560;2022-10-31T08:21:53;15.90;99.90
26947;DHT22;14501;52.282;10.560;2022-10-31T08:24:21;16.00;99.90
26947;DHT22;14501;52.282;10.560;2022-10-31T08:26:47;16.00;99.90
26947;DHT22;14501;52.282;10.560;2022-10-31T08:29:13;16.00;99.90
26947;DHT22;14501;52.282;10.560;2022-10-31T08:31:40;16.00;99.90
26947;DHT22;14501;52.282;10.560;2022-10-31T08:34:05;16.00;99.90
26947;DHT22;14501;52.282;10.560;2022-10-31T08:36:31;16.00;99.90
26947;DHT22;14501;52.282;10.560;2022-10-31T08:38:57;16.00;99.90
26947;DHT22;14501;52.282;10.560;2022-10-31T08:41:22;16.10;99.90
26947;DHT22;14501;52.282;10.560;2022-10-31T08:43:48;16.00;99.90
26947;DHT22;14501;52.282;10.560;2022-10-31T08:46:14;16.10;99.90
26947;DHT22;14501;52.282;10.560;2022-10-31T08:48:40;16.40;99.90
26947;DHT22;14501;52.282;10.560;2022-10-31T08:51:06;16.80;99.90
26947;DHT22;14501;52.282;10.560;2022-10-31T08:53:32;17.10;99.90
26947;DHT22;14501;52.282;10.560;2022-10-31T08:55:57;17.30;99.90
26947;DHT22;14501;52.282;10.560;2022-10-31T08:58:26;17.30;99.90
26947;DHT22;14501;52.282;10.560;2022-10-31T09:00:58;17.40;99.90
26947;DHT22;14501;52.282;10.560;2022-10-31T09:03:28;17.40;99.90
26947;DHT22;14501;52.282;10.560;2022-10-31T09:06:02;17.50;99.90
26947;DHT22;14501;52.282;10.560;2022-10-31T09:08:32;18.20;99.90
26947;DHT22;14501;52.282;10.560;2022-10-31T09:10:58;19.00;99.90
26947;DHT22;14501;52.282;10.560;2022-10-31T09:13:24;20.20;99.90
26947;DHT22;14501;52.282;10.560;2022-10-31T09:15:50;21.20;99.90
26947;DHT22;14501;52.282;10.560;2022-10-31T09:18:21;21.80;99.90
26947;DHT22;14501;52.282;10.560;2022-10-31T09:20:48;22.00;99.90
26947;DHT22;14501;52.282;10.560;2022-10-31T09:23:19;22.30;99.90
26947;DHT22;14501;52.282;10.560;2022-10-31T09:25:46;22.60;99.90
26947;DHT22;14501;52.282;10.560;2022-10-31T09:28:14;23.00;99.90
26947;DHT22;14501;52.282;10.560;2022-10-31T09:30:40;23.50;99.90
26947;DHT22;14501;52.282;10.560;2022-10-31T09:33:09;23.70;99.90
26947;DHT22;14501;52.282;10.560;2022-10-31T09:35:35;23.90;99.90
26947;DHT22;14501;52.282;10.560;2022-10-31T09:38:03;24.20;99.90
26947;DHT22;14501;52.282;10.560;2022-10-31T09:40:43;24.40;99.90
26947;DHT22;14501;52.282;10.560;2022-10-31T09:43:37;24.60;99.90
26947;DHT22;14501;52.282;10.560;2022-10-31T09:51:20;23.80;99.90
26947;DHT22;14501;52.282;10.560;2022-10-31T09:54:05;23.50;99.90
26947;DHT22;14501;52.282;10.560;2022-10-31T09:56:32;22.90;99.90
26947;DHT22;14501;52.282;10.560;2022-10-31T09:59:01;22.50;99.90
26947;DHT22;14501;52.282;10.560;2022-10-31T10:01:44;22.10;99.90
26947;DHT22;14501;52.282;10.560;2022-10-31T10:06:50;22.10;99.90
26947;DHT22;14501;52.282;10.560;2022-10-31T10:09:17;22.00;99.90
26947;DHT22;14501;52.282;10.560;2022-10-31T10:22:43;21.20;99.90
26947;DHT22;14501;52.282;10.560;2022-10-31T10:25:23;20.70;99.90
26947;DHT22;14501;52.282;10.560;2022-10-31T10:30:41;20.30;99.90
26947;DHT22;14501;52.282;10.560;2022-10-31T10:33:14;20.20;99.90
26947;DHT22;14501;52.282;10.560;2022-10-31T10:35:42;20.00;99.90
26947;DHT22;14501;52.282;10.560;2022-10-31T10:39:05;19.80;99.90
26947;DHT22;14501;52.282;10.560;2022-10-31T10:41:26;19.80;99.90
26947;DHT22;14501;52.282;10.560;2022-10-31T10:43:53;19.80;99.90
26947;DHT22;14501;52.282;10.560;2022-10-31T10:56:47;19.50;99.90
26947;DHT22;14501;52.282;10.560;2022-10-31T10:59:19;19.40;99.90
26947;DHT22;14501;52.282;10.560;2022-10-31T11:01:48;19.40;99.90
26947;DHT22;14501;52.282;10.560;2022-10-31T11:04:34;19.40;99.90
26947;DHT22;14501;52.282;10.560;2022-10-31T11:07:09;19.40;99.90
26947;DHT22;14501;52.282;10.560;2022-10-31T11:09:35;19.50;99.90
26947;DHT22;14501;52.282;10.560;2022-10-31T11:14:58;19.50;99.90
26947;DHT22;14501;52.282;10.560;2022-10-31T11:17:38;19.70;99.90
26947;DHT22;14501;52.282;10.560;2022-10-31T11:22:44;20.00;99.90
26947;DHT22;14501;52.282;10.560;2022-10-31T11:27:46;20.40;99.90
26947;DHT22;14501;52.282;10.560;2022-10-31T11:30:13;20.40;99.90
26947;DHT22;14501;52.282;10.560;2022-10-31T11:32:50;20.40;99.90
26947;DHT22;14501;52.282;10.560;2022-10-31T11:35:20;20.20;99.90
26947;DHT22;14501;52.282;10.560;2022-10-31T11:37:48;20.30;99.90
26947;DHT22;14501;52.282;10.560;2022-10-31T11:40:21;20.40;99.90
26947;DHT22;14501;52.282;10.560;2022-10-31T11:42:49;20.40;99.90
26947;DHT22;14501;52.282;10.560;2022-10-31T11:45:19;20.50;99.90
26947;DHT22;14501;52.282;10.560;2022-10-31T11:47:54;20.50;99.90
26947;DHT22;14501;52.282;10.560;2022-10-31T11:50:27;20.40;99.90
26947;DHT22;14501;52.282;10.560;2022-10-31T11:52:54;20.50;99.90
26947;DHT22;14501;52.282;10.560;2022-10-31T11:57:56;20.40;99.90
26947;DHT22;14501;52.282;10.560;2022-10-31T12:03:01;20.50;99.90
26947;DHT22;14501;52.282;10.560;2022-10-31T12:05:29;20.50;99.90
26947;DHT22;14501;52.282;10.560;2022-10-31T12:07:58;20.40;99.90
26947;DHT22;14501;52.282;10.560;2022-10-31T12:10:30;20.20;99.90
26947;DHT22;14501;52.282;10.560;2022-10-31T12:13:18;20.20;99.90
26947;DHT22;14501;52.282;10.560;2022-10-31T12:15:56;20.20;99.90
26947;DHT22;14501;52.282;10.560;2022-10-31T12:18:55;20.30;99.90
26947;DHT22;14501;52.282;10.560;2022-10-31T12:21:37;20.30;99.90
26947;DHT22;14501;52.282;10.560;2022-10-31T12:24:11;20.40;99.90
26947;DHT22;14501;52.282;10.560;2022-10-31T12:27:11;20.40;99.90
26947;DHT22;14501;52.282;10.560;2022-10-31T12:38:09;20.00;99.90
26947;DHT22;14501;52.282;10.560;2022-10-31T12:46:06;19.60;99.90
26947;DHT22;14501;52.282;10.560;2022-10-31T12:48:53;19.50;99.90
26947;DHT22;14501;52.282;10.560;2022-10-31T12:59:31;19.60;99.90
26947;DHT22;14501;52.282;10.560;2022-10-31T13:07:50;19.70;99.90
26947;DHT22;14501;52.282;10.560;2022-10-31T13:10:36;19.70;99.90
26947;DHT22;14501;52.282;10.560;2022-10-31T13:13:15;19.70;99.90
26947;DHT22;14501;52.282;10.560;2022-10-31T13:15:51;19.70;99.90
26947;DHT22;14501;52.282;10.560;2022-10-31T13:21:17;19.30;99.90
26947;DHT22;14501;52.282;10.560;2022-10-31T13:23:44;19.20;99.90
26947;DHT22;14501;52.282;10.560;2022-10-31T13:26:40;19.20;99.90
26947;DHT22;14501;52.282;10.560;2022-10-31T13:31:51;19.10;99.90
26947;DHT22;14501;52.282;10.560;2022-10-31T13:34:39;19.20;99.90
26947;DHT22;14501;52.282;10.560;2022-10-31T13:40:03;19.20;99.90
26947;DHT22;14501;52.282;10.560;2022-10-31T13:43:01;19.10;99.90
26947;DHT22;14501;52.282;10.560;2022-10-31T13:45:28;19.00;99.90
26947;DHT22;14501;52.282;10.560;2022-10-31T13:48:46;18.90;99.90
26947;DHT22;14501;52.282;10.560;2022-10-31T13:50:58;18.70;99.90
26947;DHT22;14501;52.282;10.560;2022-10-31T13:58:34;18.50;99.90
26947;DHT22;14501;52.282;10.560;2022-10-31T14:03:38;18.40;99.90
26947;DHT22;14501;52.282;10.560;2022-10-31T14:06:05;18.30;99.90
26947;DHT22;14501;52.282;10.560;2022-10-31T14:08:34;18.20;99.90
26947;DHT22;14501;52.282;10.560;2022-10-31T14:11:00;18.10;99.90
26947;DHT22;14501;52.282;10.560;2022-10-31T14:13:36;18.00;99.90
26947;DHT22;14501;52.282;10.560;2022-10-31T14:16:05;17.90;99.90
26947;DHT22;14501;52.282;10.560;2022-10-31T14:18:39;17.80;99.90
26947;DHT22;14501;52.282;10.560;2022-10-31T14:23:51;17.70;99.90
26947;DHT22;14501;52.282;10.560;2022-10-31T14:28:55;17.60;99.90
26947;DHT22;14501;52.282;10.560;2022-10-31T14:31:38;17.50;99.90
26947;DHT22;14501;52.282;10.560;2022-10-31T14:34:26;17.50;99.90
26947;DHT22;14501;52.282;10.560;2022-10-31T14:37:14;17.30;99.90
26947;DHT22;14501;52.282;10.560;2022-10-31T14:53:03;17.00;99.90
26947;DHT22;14501;52.282;10.560;2022-10-31T14:55:30;17.00;99.90
26947;DHT22;14501;52.282;10.560;2022-10-31T14:58:02;16.90;99.90
26947;DHT22;14501;52.282;10.560;2022-10-31T15:00:31;16.90;99.90
26947;DHT22;14501;52.282;10.560;2022-10-31T15:05:55;16.70;99.90
26947;DHT22;14501;52.282;10.560;2022-10-31T15:08:33;16.70;99.90
26947;DHT22;14501;52.282;10.560;2022-10-31T15:11:03;16.60;99.90
26947;DHT22;14501;52.282;10.560;2022-10-31T15:13:29;16.50;99.90
26947;DHT22;14501;52.282;10.560;2022-10-31T15:15:55;16.40;99.90
26947;DHT22;14501;52.282;10.560;2022-10-31T15:18:27;16.30;99.90
26947;DHT22;14501;52.282;10.560;2022-10-31T15:20:55;16.30;99.90
26947;DHT22;14501;52.282;10.560;2022-10-31T15:23:30;16.30;99.90
26947;DHT22;14501;52.282;10.560;2022-10-31T15:26:01;16.20;99.90
26947;DHT22;14501;52.282;10.560;2022-10-31T15:28:28;16.20;99.90
26947;DHT22;14501;52.282;10.560;2022-10-31T15:30:56;16.10;99.90
26947;DHT22;14501;52.282;10.560;2022-10-31T15:33:38;16.10;99.90
26947;DHT22;14501;52.282;10.560;2022-10-31T15:36:05;16.00;99.90
26947;DHT22;14501;52.282;10.560;2022-10-31T15:38:31;15.90;99.90
26947;DHT22;14501;52.282;10.560;2022-10-31T15:43:23;15.80;99.90
26947;DHT22;14501;52.282;10.560;2022-10-31T15:45:49;15.80;99.90
26947;DHT22;14501;52.282;10.560;2022-10-31T15:48:22;15.70;99.90
26947;DHT22;14501;52.282;10.560;2022-10-31T15:50:58;15.70;99.90
26947;DHT22;14501;52.282;10.560;2022-10-31T15:53:27;15.70;99.90
26947;DHT22;14501;52.282;10.560;2022-10-31T15:56:07;15.60;99.90
26947;DHT22;14501;52.282;10.560;2022-10-31T15:58:43;15.50;99.90
26947;DHT22;14501;52.282;10.560;2022-10-31T16:01:38;15.50;99.90
26947;DHT22;14501;52.282;10.560;2022-10-31T16:04:21;15.50;99.90
26947;DHT22;14501;52.282;10.560;2022-10-31T16:07:18;15.50;99.90
26947;DHT22;14501;52.282;10.560;2022-10-31T16:10:00;15.50;99.90
26947;DHT22;14501;52.282;10.560;2022-10-31T16:12:34;15.50;99.90
26947;DHT22;14501;52.282;10.560;2022-10-31T16:15:01;15.40;99.90
26947;DHT22;14501;52.282;10.560;2022-10-31T16:17:28;15.30;99.90
26947;DHT22;14501;52.282;10.560;2022-10-31T16:19:57;15.30;99.90
26947;DHT22;14501;52.282;10.560;2022-10-31T16:22:30;15.30;99.90
26947;DHT22;14501;52.282;10.560;2022-10-31T16:25:12;15.20;99.90
26947;DHT22;14501;52.282;10.560;2022-10-31T16:27:40;15.10;99.90
26947;DHT22;14501;52.282;10.560;2022-10-31T16:30:41;15.10;99.90
26947;DHT22;14501;52.282;10.560;2022-10-31T16:33:40;15.00;99.90
26947;DHT22;14501;52.282;10.560;2022-10-31T16:38:59;15.00;99.90
26947;DHT22;14501;52.282;10.560;2022-10-31T16:41:25;14.90;99.90
26947;DHT22;14501;52.282;10.560;2022-10-31T16:43:52;14.90;99.90
26947;DHT22;14501;52.282;10.560;2022-10-31T16:46:25;15.00;99.90
26947;DHT22;14501;52.282;10.560;2022-10-31T16:48:52;14.90;99.90
26947;DHT22;14501;52.282;10.560;2022-10-31T16:51:18;14.90;99.90
26947;DHT22;14501;52.282;10.560;2022-10-31T16:53:43;14.90;99.90
26947;DHT22;14501;52.282;10.560;2022-10-31T16:56:16;14.80;99.90
26947;DHT22;14501;52.282;10.560;2022-10-31T16:58:43;14.80;99.90
26947;DHT22;14501;52.282;10.560;2022-10-31T17:01:11;14.80;99.90
26947;DHT22;14501;52.282;10.560;2022-10-31T17:03:38;14.70;99.90
26947;DHT22;14501;52.282;10.560;2022-10-31T17:06:03;14.70;99.90
26947;DHT22;14501;52.282;10.560;2022-10-31T17:08:29;14.70;99.90
26947;DHT22;14501;52.282;10.560;2022-10-31T17:10:56;14.70;99.90
26947;DHT22;14501;52.282;10.560;2022-10-31T17:13:25;14.80;99.90
26947;DHT22;14501;52.282;10.560;2022-10-31T17:15:54;14.70;99.90
26947;DHT22;14501;52.282;10.560;2022-10-31T17:18:20;14.60;99.90
26947;DHT22;14501;52.282;10.560;2022-10-31T17:20:46;14.60;99.90
26947;DHT22;14501;52.282;10.560;2022-10-31T17:23:14;14.50;99.90
26947;DHT22;14501;52.282;10.560;2022-10-31T17:25:41;14.50;99.90
26947;DHT22;14501;52.282;10.560;2022-10-31T17:28:11;14.40;99.90
26947;DHT22;14501;52.282;10.560;2022-10-31T17:30:37;14.40;99.90
26947;DHT22;14501;52.282;10.560;2022-10-31T17:33:03;14.40;99.90
26947;DHT22;14501;52.282;10.560;2022-10-31T17:35:28;14.30;99.90
26947;DHT22;14501;52.282;10.560;2022-10-31T17:37:54;14.40;99.90
26947;DHT22;14501;52.282;10.560;2022-10-31T17:40:21;14.30;99.90
26947;DHT22;14501;52.282;10.560;2022-10-31T17:42:55;14.30;99.90
26947;DHT22;14501;52.282;10.560;2022-10-31T17:45:23;14.20;99.90
26947;DHT22;14501;52.282;10.560;2022-10-31T17:47:50;14.20;99.90
26947;DHT22;14501;52.282;10.560;2022-10-31T17:50:22;14.10;99.90
26947;DHT22;14501;52.282;10.560;2022-10-31T17:52:48;14.10;99.90
26947;DHT22;14501;52.282;10.560;2022-10-31T17:55:15;14.10;99.90
26947;DHT22;14501;52.282;10.560;2022-10-31T17:57:41;14.10;99.90
26947;DHT22;14501;52.282;10.560;2022-10-31T18:00:14;14.10;99.90
26947;DHT22;14501;52.282;10.560;2022-10-31T18:02:40;14.00;99.90
26947;DHT22;14501;52.282;10.560;2022-10-31T18:05:06;14.00;99.90